createdAt,value
2023-04-13T00:01:21.352Z,9.10
2023-04-13T00:03:48.162Z,9.00
2023-04-13T00:06:14.879Z,9.00
2023-04-13T00:08:43.481Z,9.00
2023-04-13T00:11:10.748Z,9.00
2023-04-13T00:13:41.221Z,9.00
2023-04-13T00:16:12.426Z,9.10
2023-04-13T00:18:40.013Z,9.10
2023-04-13T00:21:07.406Z,9.00
2023-04-13T00:23:36.019Z,8.80
2023-04-13T00:26:02.719Z,8.80
2023-04-13T00:28:29.938Z,8.70
2023-04-13T00:30:56.740Z,8.70
2023-04-13T00:33:23.794Z,8.70
2023-04-13T00:35:50.577Z,8.80
2023-04-13T00:38:18.105Z,8.70
2023-04-13T00:40:44.959Z,8.70
2023-04-13T00:43:11.711Z,8.60
2023-04-13T00:45:39.483Z,8.60
2023-04-13T00:48:10.677Z,8.60
2023-04-13T00:50:37.894Z,8.50
2023-04-13T00:53:08.113Z,8.50
2023-04-13T00:55:39.330Z,8.60
2023-04-13T00:58:06.182Z,8.60
2023-04-13T01:00:32.802Z,8.60
2023-04-13T01:05:35.591Z,8.50
2023-04-13T01:08:13.906Z,8.50
2023-04-13T01:10:57.362Z,8.50
2023-04-13T01:13:24.046Z,8.50
2023-04-13T01:16:08.842Z,8.50
2023-04-13T01:18:40.138Z,8.40
2023-04-13T01:21:11.996Z,8.40
2023-04-13T01:24:09.813Z,8.40
2023-04-13T01:26:58.313Z,8.40
2023-04-13T01:29:27.017Z,8.40
2023-04-13T01:31:54.241Z,8.40
2023-04-13T01:34:23.248Z,8.30
2023-04-13T01:36:50.896Z,8.30
2023-04-13T01:39:21.582Z,8.30
2023-04-13T01:41:48.204Z,8.20
2023-04-13T01:44:14.998Z,8.20
2023-04-13T01:46:50.483Z,8.20
2023-04-13T01:49:21.359Z,8.10
2023-04-13T01:51:50.299Z,8.10
2023-04-13T01:54:20.701Z,8.10
2023-04-13T01:56:48.205Z,8.00
2023-04-13T01:59:16.539Z,8.10
2023-04-13T02:01:43.633Z,8.10
2023-04-13T02:04:10.797Z,8.00
2023-04-13T02:06:37.720Z,8.00
2023-04-13T02:09:06.591Z,7.90
2023-04-13T02:11:34.997Z,7.80
2023-04-13T02:14:02.182Z,7.80
2023-04-13T02:16:28.962Z,7.80
2023-04-13T02:18:58.376Z,7.80
2023-04-13T02:21:25.691Z,7.70
2023-04-13T02:23:52.748Z,7.60
2023-04-13T02:26:20.041Z,7.60
2023-04-13T02:28:47.150Z,7.60
2023-04-13T02:31:17.561Z,7.50
2023-04-13T02:33:44.648Z,7.30
2023-04-13T02:36:11.947Z,7.20
2023-04-13T02:38:38.590Z,7.20
2023-04-13T02:41:06.241Z,7.20
2023-04-13T02:43:33.328Z,7.30
2023-04-13T02:46:00.138Z,7.20
2023-04-13T02:48:27.053Z,7.20
2023-04-13T02:50:54.311Z,7.20
2023-04-13T02:53:21.930Z,7.20
2023-04-13T02:55:50.226Z,7.10
2023-04-13T02:58:17.110Z,7.10
2023-04-13T03:00:44.556Z,7.10
2023-04-13T03:03:11.420Z,7.00
2023-04-13T03:05:39.044Z,6.90
2023-04-13T03:08:06.233Z,6.80
2023-04-13T03:10:33.123Z,6.70
2023-04-13T03:12:59.944Z,6.60
2023-04-13T03:15:26.645Z,6.60
2023-04-13T03:17:53.325Z,6.60
2023-04-13T03:20:20.855Z,6.50
2023-04-13T03:22:47.536Z,6.60
2023-04-13T03:25:14.229Z,6.60
2023-04-13T03:27:41.179Z,6.60
2023-04-13T03:30:08.949Z,6.60
2023-04-13T03:32:36.010Z,6.60
2023-04-13T03:35:02.669Z,6.60
2023-04-13T03:37:32.683Z,6.50
2023-04-13T03:39:59.347Z,6.50
2023-04-13T03:42:26.164Z,6.60
2023-04-13T03:44:53.067Z,6.60
2023-04-13T03:47:19.833Z,6.60
2023-04-13T03:49:47.028Z,6.60
2023-04-13T03:52:13.695Z,6.70
2023-04-13T03:54:40.513Z,6.50
2023-04-13T03:57:07.350Z,6.50
2023-04-13T03:59:34.240Z,6.50
2023-04-13T04:02:02.752Z,6.50
2023-04-13T04:04:29.787Z,6.40
2023-04-13T04:06:57.814Z,6.40
2023-04-13T04:09:24.772Z,6.30
2023-04-13T04:11:51.411Z,6.30
2023-04-13T04:14:18.437Z,6.30
2023-04-13T04:16:45.121Z,6.30
2023-04-13T04:19:12.083Z,6.30
2023-04-13T04:21:38.716Z,6.20
2023-04-13T04:24:08.764Z,6.20
2023-04-13T04:26:37.979Z,6.20
2023-04-13T04:29:07.325Z,6.10
2023-04-13T04:31:36.990Z,6.10
2023-04-13T04:34:04.646Z,6.00
2023-04-13T04:36:31.568Z,6.00
2023-04-13T04:39:02.439Z,5.90
2023-04-13T04:41:31.437Z,5.90
2023-04-13T04:44:02.858Z,5.90
2023-04-13T04:46:29.692Z,5.80
2023-04-13T04:49:00.856Z,5.80
2023-04-13T04:51:28.031Z,5.90
2023-04-13T04:53:54.838Z,5.90
2023-04-13T04:56:21.644Z,6.00
2023-04-13T04:58:48.218Z,6.10
2023-04-13T05:01:14.881Z,6.10
2023-04-13T05:03:42.127Z,6.10
2023-04-13T05:06:09.378Z,6.10
2023-04-13T05:08:36.081Z,6.20
2023-04-13T05:11:06.301Z,6.20
2023-04-13T05:13:33.119Z,6.20
2023-04-13T05:15:59.797Z,6.10
2023-04-13T05:18:27.239Z,6.20
2023-04-13T05:20:53.822Z,6.20
2023-04-13T05:23:20.407Z,6.20
2023-04-13T05:25:47.681Z,6.20
2023-04-13T05:28:14.309Z,6.30
2023-04-13T05:30:40.988Z,6.30
2023-04-13T05:33:09.019Z,6.40
2023-04-13T05:35:37.434Z,6.40
2023-04-13T05:38:04.446Z,6.50
2023-04-13T05:40:33.561Z,6.50
2023-04-13T05:43:00.330Z,6.50
2023-04-13T05:45:27.458Z,6.60
2023-04-13T05:47:54.204Z,6.70
2023-04-13T05:50:20.952Z,6.70
2023-04-13T05:52:47.680Z,6.70
2023-04-13T05:55:16.418Z,6.70
2023-04-13T05:57:43.031Z,6.70
2023-04-13T06:00:10.564Z,6.70
2023-04-13T06:02:39.028Z,6.70
2023-04-13T06:05:07.952Z,6.70
2023-04-13T06:07:35.727Z,6.60
2023-04-13T06:10:02.456Z,6.70
2023-04-13T06:12:30.399Z,6.70
2023-04-13T06:14:57.077Z,6.90
2023-04-13T06:17:24.531Z,6.90
2023-04-13T06:19:51.664Z,6.90
2023-04-13T06:22:18.277Z,6.90
2023-04-13T06:24:44.915Z,6.90
2023-04-13T06:27:11.726Z,7.00
2023-04-13T06:29:38.693Z,7.10
2023-04-13T06:32:06.575Z,7.10
2023-04-13T06:34:33.945Z,7.10
2023-04-13T06:37:01.827Z,7.20
2023-04-13T06:39:29.362Z,7.20
2023-04-13T06:41:57.712Z,7.30
2023-04-13T06:44:25.551Z,7.20
2023-04-13T06:46:52.219Z,7.20
2023-04-13T06:49:18.911Z,7.20
2023-04-13T06:51:45.569Z,7.20
2023-04-13T06:54:12.244Z,7.10
2023-04-13T06:56:38.993Z,7.10
2023-04-13T06:59:06.016Z,7.10
2023-04-13T07:01:33.092Z,7.20
2023-04-13T07:04:00.198Z,7.20
2023-04-13T07:06:27.443Z,7.20
2023-04-13T07:08:54.057Z,7.30
2023-04-13T07:11:20.829Z,7.30
2023-04-13T07:13:47.496Z,7.40
2023-04-13T07:16:14.241Z,7.40
2023-04-13T07:18:40.927Z,7.40
2023-04-13T07:21:07.860Z,7.50
2023-04-13T07:23:34.746Z,7.50
2023-04-13T07:26:01.576Z,7.50
2023-04-13T07:28:28.478Z,7.50
2023-04-13T07:30:55.371Z,7.60
2023-04-13T07:33:22.022Z,7.60
2023-04-13T07:35:50.218Z,7.60
2023-04-13T07:38:16.994Z,7.70
2023-04-13T07:40:43.626Z,7.70
2023-04-13T07:43:10.264Z,7.80
2023-04-13T07:45:36.910Z,7.90
2023-04-13T07:48:03.808Z,8.00
2023-04-13T07:50:30.592Z,8.00
2023-04-13T07:52:57.238Z,8.00
2023-04-13T07:55:23.941Z,8.20
2023-04-13T07:57:50.729Z,8.30
2023-04-13T08:00:20.400Z,8.20
2023-04-13T08:02:47.750Z,8.30
2023-04-13T08:05:14.954Z,8.20
2023-04-13T08:07:41.815Z,8.30
2023-04-13T08:10:09.125Z,8.40
2023-04-13T08:12:36.010Z,8.60
2023-04-13T08:15:02.884Z,8.70
2023-04-13T08:17:29.544Z,8.50
2023-04-13T08:19:56.262Z,8.50
2023-04-13T08:22:22.926Z,8.40
2023-04-13T08:24:49.581Z,8.50
2023-04-13T08:27:16.239Z,8.60
2023-04-13T08:29:42.839Z,8.50
2023-04-13T08:32:09.581Z,8.40
2023-04-13T08:34:36.725Z,8.40
2023-04-13T08:37:03.293Z,8.40
2023-04-13T08:39:29.905Z,8.50
2023-04-13T08:41:56.833Z,8.50
2023-04-13T08:44:23.861Z,8.60
2023-04-13T08:46:53.288Z,8.70
2023-04-13T08:49:20.137Z,8.80
2023-04-13T08:51:47.847Z,8.70
2023-04-13T08:54:16.351Z,8.70
2023-04-13T08:56:47.227Z,8.70
2023-04-13T08:59:16.181Z,8.70
2023-04-13T09:01:47.303Z,8.90
2023-04-13T09:04:17.936Z,9.00
2023-04-13T09:06:47.720Z,9.10
2023-04-13T09:09:14.919Z,9.10
2023-04-13T09:11:43.073Z,9.10
2023-04-13T09:14:10.330Z,9.20
2023-04-13T09:16:41.642Z,9.20
2023-04-13T09:19:08.804Z,9.40
2023-04-13T09:21:45.897Z,9.50
2023-04-13T09:24:12.791Z,9.50
2023-04-13T09:26:44.056Z,9.60
2023-04-13T09:29:19.191Z,9.70
2023-04-13T09:31:47.303Z,9.80
2023-04-13T09:34:27.939Z,9.80
2023-04-13T09:36:56.636Z,9.80
2023-04-13T09:39:28.490Z,9.60
2023-04-13T09:41:55.994Z,9.60
2023-04-13T09:44:30.941Z,9.60
2023-04-13T09:47:02.402Z,9.70
2023-04-13T09:49:39.020Z,9.90
2023-04-13T09:52:09.972Z,9.90
2023-04-13T09:54:39.644Z,10.00
2023-04-13T09:57:06.275Z,10.10
2023-04-13T09:59:33.977Z,10.10
2023-04-13T10:02:03.463Z,9.90
2023-04-13T10:04:31.273Z,9.90
2023-04-13T10:06:58.523Z,9.80
2023-04-13T10:09:26.499Z,9.80
2023-04-13T10:11:55.920Z,9.70
2023-04-13T10:14:28.766Z,9.50
2023-04-13T10:17:17.428Z,9.40
2023-04-13T10:19:48.206Z,9.40
2023-04-13T10:22:16.518Z,9.30
2023-04-13T10:24:44.520Z,9.20
2023-04-13T10:27:18.971Z,9.30
2023-04-13T10:29:47.100Z,9.30
2023-04-13T10:32:24.781Z,9.30
2023-04-13T10:34:52.637Z,9.40
2023-04-13T10:37:24.663Z,9.40
2023-04-13T10:40:13.788Z,9.50
2023-04-13T10:42:52.341Z,9.60
2023-04-13T10:45:25.964Z,9.70
2023-04-13T10:47:56.206Z,9.90
2023-04-13T10:50:24.539Z,9.90
2023-04-13T10:53:07.639Z,9.90
2023-04-13T10:55:35.349Z,10.00
2023-04-13T10:58:03.069Z,10.10
2023-04-13T11:00:44.661Z,10.10
2023-04-13T11:03:15.056Z,10.30
2023-04-13T11:05:43.162Z,10.30
2023-04-13T11:08:10.074Z,10.30
2023-04-13T11:10:36.754Z,10.30
2023-04-13T11:13:03.432Z,10.20
2023-04-13T11:15:32.205Z,10.30
2023-04-13T11:18:00.769Z,10.30
2023-04-13T11:20:38.392Z,10.40
2023-04-13T11:23:07.270Z,10.50
2023-04-13T11:25:34.533Z,10.60
2023-04-13T11:28:03.690Z,10.70
2023-04-13T11:30:32.534Z,10.70
2023-04-13T11:33:01.474Z,10.70
2023-04-13T11:35:28.137Z,10.70
2023-04-13T11:37:56.104Z,10.80
2023-04-13T11:40:25.585Z,10.70
2023-04-13T11:42:54.466Z,10.50
2023-04-13T11:45:25.776Z,10.00
2023-04-13T11:47:53.280Z,9.30
2023-04-13T11:50:21.462Z,9.00
2023-04-13T11:52:51.261Z,8.30
2023-04-13T11:55:23.883Z,8.00
2023-04-13T11:57:52.973Z,7.70
2023-04-13T12:00:26.529Z,7.70
2023-04-13T12:05:27.398Z,7.50
2023-04-13T12:07:56.195Z,7.40
2023-04-13T12:10:25.597Z,7.40
2023-04-13T12:13:19.917Z,7.40
2023-04-13T12:16:05.245Z,7.40
2023-04-13T12:18:47.222Z,7.20
2023-04-13T12:21:19.964Z,7.30
2023-04-13T12:23:59.102Z,7.10
2023-04-13T12:29:08.220Z,7.00
2023-04-13T12:31:39.328Z,7.20
2023-04-13T12:34:07.701Z,7.20
2023-04-13T12:36:36.305Z,7.30
2023-04-13T12:39:06.924Z,7.50
2023-04-13T12:41:33.903Z,7.60
2023-04-13T12:44:01.274Z,7.60
2023-04-13T12:46:28.085Z,7.90
2023-04-13T12:48:54.885Z,8.10
2023-04-13T12:51:21.640Z,8.00
2023-04-13T12:53:48.368Z,8.00
2023-04-13T12:56:15.981Z,8.10
2023-04-13T12:58:42.749Z,8.10
2023-04-13T13:01:09.752Z,8.20
2023-04-13T13:03:37.038Z,8.20
2023-04-13T13:06:05.547Z,8.00
2023-04-13T13:08:34.919Z,8.00
2023-04-13T13:11:02.906Z,8.00
2023-04-13T13:13:29.509Z,7.90
2023-04-13T13:15:56.141Z,7.90
2023-04-13T13:18:22.754Z,8.00
2023-04-13T13:20:53.287Z,8.10
2023-04-13T13:23:19.984Z,8.10
2023-04-13T13:26:04.090Z,8.10
2023-04-13T13:28:33.242Z,8.10
2023-04-13T13:30:59.867Z,8.10
2023-04-13T13:33:26.583Z,7.90
2023-04-13T13:35:53.220Z,7.90
2023-04-13T13:38:19.845Z,7.80
2023-04-13T13:40:47.200Z,7.80
2023-04-13T13:43:14.199Z,7.90
2023-04-13T13:45:41.083Z,7.80
2023-04-13T13:48:07.757Z,7.70
2023-04-13T13:50:34.344Z,7.60
2023-04-13T13:53:04.427Z,7.60
2023-04-13T13:55:31.839Z,7.60
2023-04-13T13:57:58.738Z,7.50
2023-04-13T14:00:25.930Z,7.40
2023-04-13T14:02:53.386Z,7.40
2023-04-13T14:05:21.962Z,7.40
2023-04-13T14:07:48.773Z,7.30
2023-04-13T14:10:15.596Z,7.20
2023-04-13T14:12:45.231Z,7.20
2023-04-13T14:15:13.154Z,7.20
2023-04-13T14:17:40.314Z,7.30
2023-04-13T14:20:11.813Z,7.30
2023-04-13T14:22:40.262Z,7.40
2023-04-13T14:25:08.914Z,7.40
2023-04-13T14:27:36.294Z,7.40
2023-04-13T14:30:04.118Z,7.10
2023-04-13T14:32:31.668Z,7.00
2023-04-13T14:34:59.943Z,6.90
2023-04-13T14:37:29.608Z,6.80
2023-04-13T14:39:56.249Z,6.70
2023-04-13T14:42:24.705Z,6.60
2023-04-13T14:44:51.822Z,6.50
2023-04-13T14:47:19.533Z,6.40
2023-04-13T14:49:47.279Z,6.40
2023-04-13T14:52:15.092Z,6.30
2023-04-13T14:54:42.268Z,6.50
2023-04-13T14:57:10.429Z,6.50
2023-04-13T14:59:37.405Z,6.50
2023-04-13T15:02:04.738Z,6.50
2023-04-13T15:04:31.852Z,6.50
2023-04-13T15:06:58.860Z,6.40
2023-04-13T15:09:25.756Z,6.40
2023-04-13T15:11:52.567Z,6.40
2023-04-13T15:14:19.383Z,6.40
2023-04-13T15:16:46.205Z,6.30
2023-04-13T15:19:13.144Z,6.30
2023-04-13T15:21:39.772Z,6.30
2023-04-13T15:24:06.964Z,6.30
2023-04-13T15:26:39.242Z,6.30
2023-04-13T15:29:06.491Z,6.30
2023-04-13T15:31:35.969Z,6.40
2023-04-13T15:34:05.171Z,6.40
2023-04-13T15:36:32.217Z,6.40
2023-04-13T15:38:59.180Z,6.50
2023-04-13T15:41:27.512Z,6.60
2023-04-13T15:43:55.586Z,6.60
2023-04-13T15:46:22.420Z,6.60
2023-04-13T15:48:50.310Z,6.70
2023-04-13T15:51:17.177Z,6.70
2023-04-13T15:53:43.817Z,6.80
2023-04-13T15:56:10.585Z,6.90
2023-04-13T15:58:37.530Z,6.80
2023-04-13T16:01:07.004Z,6.80
2023-04-13T16:03:34.856Z,6.90
2023-04-13T16:06:02.713Z,6.90
2023-04-13T16:08:29.501Z,6.90
2023-04-13T16:10:56.317Z,6.90
2023-04-13T16:13:23.071Z,6.90
2023-04-13T16:15:55.563Z,6.90
2023-04-13T16:18:30.035Z,6.90
2023-04-13T16:21:02.322Z,7.00
2023-04-13T16:23:29.504Z,6.90
2023-04-13T16:25:56.327Z,7.00
2023-04-13T16:28:23.150Z,7.00
2023-04-13T16:30:49.794Z,7.00
2023-04-13T16:33:16.602Z,6.90
2023-04-13T16:35:43.268Z,6.90
2023-04-13T16:38:09.928Z,7.00
2023-04-13T16:40:36.961Z,7.00
2023-04-13T16:43:05.517Z,6.90
2023-04-13T16:45:33.030Z,6.80
2023-04-13T16:47:59.771Z,6.90
2023-04-13T16:50:30.333Z,6.90
2023-04-13T16:52:58.860Z,6.90
2023-04-13T16:55:28.071Z,7.00
2023-04-13T16:57:54.832Z,7.00
2023-04-13T17:00:22.155Z,7.00
2023-04-13T17:02:48.948Z,6.90
2023-04-13T17:05:16.063Z,7.00
2023-04-13T17:07:44.458Z,7.00
2023-04-13T17:10:13.939Z,7.00
2023-04-13T17:12:40.902Z,7.00
2023-04-13T17:15:08.429Z,7.00
2023-04-13T17:17:35.321Z,7.00
2023-04-13T17:20:02.170Z,7.00
2023-04-13T17:22:28.859Z,6.90
2023-04-13T17:24:55.741Z,6.90
2023-04-13T17:27:22.540Z,6.90
2023-04-13T17:29:49.786Z,6.90
2023-04-13T17:32:16.851Z,6.90
2023-04-13T17:34:44.639Z,6.80
2023-04-13T17:37:11.755Z,6.90
2023-04-13T17:39:42.114Z,6.90
2023-04-13T17:42:09.388Z,6.90
2023-04-13T17:44:36.218Z,6.90
2023-04-13T17:47:02.934Z,6.80
2023-04-13T17:49:29.647Z,6.90
2023-04-13T17:51:59.053Z,6.80
2023-04-13T17:54:26.919Z,6.80
2023-04-13T17:56:54.156Z,6.80
2023-04-13T17:59:21.444Z,6.80
2023-04-13T18:01:51.858Z,6.80
2023-04-13T18:04:19.224Z,6.80
2023-04-13T18:06:45.919Z,6.80
2023-04-13T18:09:15.856Z,6.80
2023-04-13T18:11:42.534Z,6.70
2023-04-13T18:14:12.096Z,6.70
2023-04-13T18:16:38.964Z,6.70
2023-04-13T18:19:06.118Z,6.50
2023-04-13T18:21:32.889Z,6.60
2023-04-13T18:24:03.210Z,6.60
2023-04-13T18:26:30.072Z,6.60
2023-04-13T18:28:56.917Z,6.50
2023-04-13T18:31:23.764Z,6.50
2023-04-13T18:33:50.515Z,6.40
2023-04-13T18:36:18.054Z,6.40
2023-04-13T18:38:45.323Z,6.40
2023-04-13T18:41:12.864Z,6.40
2023-04-13T18:43:39.586Z,6.30
2023-04-13T18:46:07.651Z,6.30
2023-04-13T18:48:35.125Z,6.20
2023-04-13T18:51:03.154Z,6.20
2023-04-13T18:53:30.328Z,6.20
2023-04-13T18:55:58.813Z,6.20
2023-04-13T18:58:26.203Z,6.20
2023-04-13T19:00:52.920Z,6.10
2023-04-13T19:03:19.746Z,6.10
2023-04-13T19:05:47.057Z,6.10
2023-04-13T19:08:13.782Z,6.00
2023-04-13T19:10:41.977Z,6.00
2023-04-13T19:13:08.829Z,5.90
2023-04-13T19:15:36.092Z,5.90
2023-04-13T19:18:04.209Z,5.90
2023-04-13T19:20:31.373Z,5.80
2023-04-13T19:22:58.094Z,5.80
2023-04-13T19:25:25.021Z,5.80
2023-04-13T19:27:51.798Z,5.70
2023-04-13T19:30:21.240Z,5.70
2023-04-13T19:32:49.276Z,5.70
2023-04-13T19:35:16.341Z,5.70
2023-04-13T19:37:43.077Z,5.60
2023-04-13T19:40:10.489Z,5.60
2023-04-13T19:42:37.830Z,5.60
2023-04-13T19:45:05.043Z,5.50
2023-04-13T19:47:32.026Z,5.50
2023-04-13T19:49:59.439Z,5.40
2023-04-13T19:52:26.188Z,5.40
2023-04-13T19:54:52.896Z,5.40
2023-04-13T19:57:19.593Z,5.40
2023-04-13T19:59:46.409Z,5.40
2023-04-13T20:02:13.292Z,5.40
2023-04-13T20:04:40.569Z,5.50
2023-04-13T20:07:07.954Z,5.60
2023-04-13T20:09:34.653Z,5.70
2023-04-13T20:12:01.663Z,5.70
2023-04-13T20:14:28.322Z,5.80
2023-04-13T20:16:55.021Z,5.90
2023-04-13T20:19:23.708Z,5.90
2023-04-13T20:21:51.346Z,5.90
2023-04-13T20:24:18.522Z,5.90
2023-04-13T20:26:45.514Z,6.00
2023-04-13T20:29:12.212Z,6.00
2023-04-13T20:31:38.906Z,6.00
2023-04-13T20:34:09.321Z,6.00
2023-04-13T20:36:35.988Z,5.90
2023-04-13T20:39:02.759Z,5.90
2023-04-13T20:41:31.807Z,5.80
2023-04-13T20:43:59.501Z,5.70
2023-04-13T20:46:33.983Z,5.70
2023-04-13T20:49:02.463Z,5.70
2023-04-13T20:51:30.816Z,5.60
2023-04-13T20:53:58.363Z,5.60
2023-04-13T20:56:26.306Z,5.50
2023-04-13T20:58:56.111Z,5.40
2023-04-13T21:01:25.333Z,5.40
2023-04-13T21:03:52.795Z,5.40
2023-04-13T21:06:19.901Z,5.30
2023-04-13T21:08:46.665Z,5.30
2023-04-13T21:11:13.357Z,5.20
2023-04-13T21:13:40.038Z,5.20
2023-04-13T21:16:08.942Z,5.20
2023-04-13T21:18:36.697Z,5.20
2023-04-13T21:21:05.755Z,5.20
2023-04-13T21:23:32.544Z,5.20
2023-04-13T21:25:59.287Z,5.10
2023-04-13T21:28:25.881Z,5.20
2023-04-13T21:30:52.623Z,5.10
2023-04-13T21:33:19.327Z,5.00
2023-04-13T21:35:46.026Z,4.90
2023-04-13T21:38:12.670Z,4.90
2023-04-13T21:40:39.343Z,5.10
2023-04-13T21:43:06.061Z,5.00
2023-04-13T21:45:32.950Z,5.00
2023-04-13T21:47:59.560Z,5.00
2023-04-13T21:50:26.259Z,5.10
2023-04-13T21:52:52.849Z,5.10
2023-04-13T21:55:19.492Z,5.00
2023-04-13T21:57:47.135Z,5.10
2023-04-13T22:00:15.869Z,5.10
2023-04-13T22:02:42.736Z,5.10
2023-04-13T22:05:11.292Z,5.10
2023-04-13T22:07:42.952Z,5.20
2023-04-13T22:10:10.584Z,5.20
2023-04-13T22:12:37.391Z,5.30
2023-04-13T22:15:04.437Z,5.40
2023-04-13T22:17:31.228Z,5.40
2023-04-13T22:19:57.998Z,5.50
2023-04-13T22:22:24.585Z,5.50
2023-04-13T22:24:53.066Z,5.50
2023-04-13T22:27:19.918Z,5.60
2023-04-13T22:29:47.405Z,5.60
2023-04-13T22:32:14.658Z,5.60
2023-04-13T22:34:41.322Z,5.60
2023-04-13T22:37:10.207Z,5.60
2023-04-13T22:39:36.959Z,5.60
2023-04-13T22:42:03.727Z,5.60
2023-04-13T22:44:34.373Z,5.70
2023-04-13T22:47:02.183Z,5.70
2023-04-13T22:49:29.789Z,5.70
2023-04-13T22:51:56.813Z,5.70
2023-04-13T22:54:23.952Z,5.70
2023-04-13T22:56:51.142Z,5.70
2023-04-13T22:59:17.840Z,5.60
2023-04-13T23:01:44.627Z,5.60
2023-04-13T23:04:14.202Z,5.50
2023-04-13T23:06:42.496Z,5.50
2023-04-13T23:09:09.252Z,5.50
2023-04-13T23:11:36.044Z,5.50
2023-04-13T23:14:02.693Z,5.50
2023-04-13T23:16:29.571Z,5.50
2023-04-13T23:18:56.609Z,5.40
2023-04-13T23:21:23.352Z,5.40
2023-04-13T23:23:50.296Z,5.30
2023-04-13T23:26:17.005Z,5.30
2023-04-13T23:28:43.834Z,5.20
2023-04-13T23:31:10.770Z,5.20
2023-04-13T23:33:37.809Z,5.20
2023-04-13T23:36:04.958Z,5.20
2023-04-13T23:38:32.709Z,5.20
2023-04-13T23:40:59.600Z,5.20
2023-04-13T23:43:26.564Z,5.20
2023-04-13T23:45:53.738Z,5.20
2023-04-13T23:48:21.766Z,5.20
2023-04-13T23:50:48.976Z,5.20
2023-04-13T23:53:16.445Z,5.20
2023-04-13T23:55:43.029Z,5.20
2023-04-13T23:58:09.638Z,5.20
